sensor_id;sensor_type;location;lat;lon;timestamp;temperature;humidity
37806;DHT22;25082;50.870;0.022;2024-01-30T00:01:56;18.70;64.50
37806;DHT22;25082;50.870;0.022;2024-01-30T00:04:21;18.70;64.50
37806;DHT22;25082;50.870;0.022;2024-01-30T00:06:47;18.70;64.50
37806;DHT22;25082;50.870;0.022;2024-01-30T00:09:13;18.70;64.50
37806;DHT22;25082;50.870;0.022;2024-01-30T00:11:39;18.70;64.40
37806;DHT22;25082;50.870;0.022;2024-01-30T00:14:05;18.70;64.40
37806;DHT22;25082;50.870;0.022;2024-01-30T00:16:31;18.70;64.40
37806;DHT22;25082;50.870;0.022;2024-01-30T00:18:57;18.70;64.40
37806;DHT22;25082;50.870;0.022;2024-01-30T00:21:23;18.70;64.40
37806;DHT22;25082;50.870;0.022;2024-01-30T00:23:49;18.70;64.40
37806;DHT22;25082;50.870;0.022;2024-01-30T00:26:15;18.70;64.30
37806;DHT22;25082;50.870;0.022;2024-01-30T00:28:41;18.70;64.30
37806;DHT22;25082;50.870;0.022;2024-01-30T00:31:08;18.70;64.30
37806;DHT22;25082;50.870;0.022;2024-01-30T00:33:38;18.60;64.20
37806;DHT22;25082;50.870;0.022;2024-01-30T00:36:05;18.60;64.20
37806;DHT22;25082;50.870;0.022;2024-01-30T00:38:32;18.60;64.20
37806;DHT22;25082;50.870;0.022;2024-01-30T00:40:58;18.60;64.20
37806;DHT22;25082;50.870;0.022;2024-01-30T00:43:24;18.60;64.20
37806;DHT22;25082;50.870;0.022;2024-01-30T00:45:50;18.60;64.20
37806;DHT22;25082;50.870;0.022;2024-01-30T00:48:18;18.60;64.20
37806;DHT22;25082;50.870;0.022;2024-01-30T00:50:44;18.60;64.10
37806;DHT22;25082;50.870;0.022;2024-01-30T00:53:09;18.60;64.20
37806;DHT22;25082;50.870;0.022;2024-01-30T00:55:35;18.60;64.20
37806;DHT22;25082;50.870;0.022;2024-01-30T00:58:01;18.50;64.10
37806;DHT22;25082;50.870;0.022;2024-01-30T01:00:27;18.50;64.10
37806;DHT22;25082;50.870;0.022;2024-01-30T01:02:55;18.50;64.10
37806;DHT22;25082;50.870;0.022;2024-01-30T01:05:21;18.50;64.10
37806;DHT22;25082;50.870;0.022;2024-01-30T01:07:46;18.50;64.10
37806;DHT22;25082;50.870;0.022;2024-01-30T01:10:16;18.50;64.10
37806;DHT22;25082;50.870;0.022;2024-01-30T01:12:42;18.50;64.10
37806;DHT22;25082;50.870;0.022;2024-01-30T01:15:09;18.50;64.10
37806;DHT22;25082;50.870;0.022;2024-01-30T01:17:38;18.50;64.10
37806;DHT22;25082;50.870;0.022;2024-01-30T01:20:05;18.50;64.10
37806;DHT22;25082;50.870;0.022;2024-01-30T01:22:32;18.50;64.10
37806;DHT22;25082;50.870;0.022;2024-01-30T01:24:58;18.50;64.10
37806;DHT22;25082;50.870;0.022;2024-01-30T01:27:24;18.50;64.10
37806;DHT22;25082;50.870;0.022;2024-01-30T01:29:51;18.50;64.10
37806;DHT22;25082;50.870;0.022;2024-01-30T01:32:17;18.40;64.00
37806;DHT22;25082;50.870;0.022;2024-01-30T01:34:42;18.40;64.00
37806;DHT22;25082;50.870;0.022;2024-01-30T01:37:08;18.40;64.00
37806;DHT22;25082;50.870;0.022;2024-01-30T01:39:34;18.40;64.00
37806;DHT22;25082;50.870;0.022;2024-01-30T01:42:00;18.40;64.00
37806;DHT22;25082;50.870;0.022;2024-01-30T01:44:26;18.40;64.10
37806;DHT22;25082;50.870;0.022;2024-01-30T01:46:52;18.40;64.00
37806;DHT22;25082;50.870;0.022;2024-01-30T01:49:19;18.40;64.60
37806;DHT22;25082;50.870;0.022;2024-01-30T01:51:47;18.40;64.00
37806;DHT22;25082;50.870;0.022;2024-01-30T01:54:15;18.40;64.00
37806;DHT22;25082;50.870;0.022;2024-01-30T01:56:42;18.40;64.00
37806;DHT22;25082;50.870;0.022;2024-01-30T01:59:09;18.40;64.00
37806;DHT22;25082;50.870;0.022;2024-01-30T02:01:36;18.40;64.00
37806;DHT22;25082;50.870;0.022;2024-01-30T02:04:03;18.40;64.00
37806;DHT22;25082;50.870;0.022;2024-01-30T02:06:29;18.30;63.90
37806;DHT22;25082;50.870;0.022;2024-01-30T02:08:55;18.40;64.00
37806;DHT22;25082;50.870;0.022;2024-01-30T02:11:22;18.40;64.00
37806;DHT22;25082;50.870;0.022;2024-01-30T02:13:47;18.30;63.90
37806;DHT22;25082;50.870;0.022;2024-01-30T02:16:13;18.30;64.00
37806;DHT22;25082;50.870;0.022;2024-01-30T02:18:39;18.30;63.90
37806;DHT22;25082;50.870;0.022;2024-01-30T02:21:10;18.30;63.90
37806;DHT22;25082;50.870;0.022;2024-01-30T02:23:36;18.30;63.90
37806;DHT22;25082;50.870;0.022;2024-01-30T02:26:03;18.30;63.90
37806;DHT22;25082;50.870;0.022;2024-01-30T02:28:29;18.30;63.80
37806;DHT22;25082;50.870;0.022;2024-01-30T02:30:55;18.30;63.80
37806;DHT22;25082;50.870;0.022;2024-01-30T02:33:20;18.30;63.80
37806;DHT22;25082;50.870;0.022;2024-01-30T02:35:48;18.20;63.80
37806;DHT22;25082;50.870;0.022;2024-01-30T02:38:15;18.30;63.80
37806;DHT22;25082;50.870;0.022;2024-01-30T02:40:40;18.20;63.70
37806;DHT22;25082;50.870;0.022;2024-01-30T02:43:06;18.20;63.70
37806;DHT22;25082;50.870;0.022;2024-01-30T02:45:32;18.20;63.80
37806;DHT22;25082;50.870;0.022;2024-01-30T02:47:58;18.30;64.30
37806;DHT22;25082;50.870;0.022;2024-01-30T02:50:24;18.30;63.80
37806;DHT22;25082;50.870;0.022;2024-01-30T02:52:49;18.20;63.80
37806;DHT22;25082;50.870;0.022;2024-01-30T02:55:15;18.20;63.70
37806;DHT22;25082;50.870;0.022;2024-01-30T02:57:43;18.20;63.70
37806;DHT22;25082;50.870;0.022;2024-01-30T03:00:09;18.20;63.70
37806;DHT22;25082;50.870;0.022;2024-01-30T03:02:36;18.20;63.70
37806;DHT22;25082;50.870;0.022;2024-01-30T03:05:02;18.20;63.70
37806;DHT22;25082;50.870;0.022;2024-01-30T03:07:29;18.20;63.70
37806;DHT22;25082;50.870;0.022;2024-01-30T03:09:55;18.20;63.70
37806;DHT22;25082;50.870;0.022;2024-01-30T03:12:21;18.20;63.70
37806;DHT22;25082;50.870;0.022;2024-01-30T03:14:47;18.20;63.70
37806;DHT22;25082;50.870;0.022;2024-01-30T03:17:13;18.20;63.70
37806;DHT22;25082;50.870;0.022;2024-01-30T03:19:39;18.20;64.20
37806;DHT22;25082;50.870;0.022;2024-01-30T03:22:05;18.20;63.70
37806;DHT22;25082;50.870;0.022;2024-01-30T03:24:30;18.10;63.70
37806;DHT22;25082;50.870;0.022;2024-01-30T03:26:56;18.10;63.70
37806;DHT22;25082;50.870;0.022;2024-01-30T03:29:22;18.10;63.80
37806;DHT22;25082;50.870;0.022;2024-01-30T03:31:47;18.10;63.70
37806;DHT22;25082;50.870;0.022;2024-01-30T03:34:13;18.10;63.70
37806;DHT22;25082;50.870;0.022;2024-01-30T03:36:39;18.10;63.70
37806;DHT22;25082;50.870;0.022;2024-01-30T03:39:05;18.10;63.70
37806;DHT22;25082;50.870;0.022;2024-01-30T03:41:31;18.10;63.70
37806;DHT22;25082;50.870;0.022;2024-01-30T03:43:57;18.10;63.70
37806;DHT22;25082;50.870;0.022;2024-01-30T03:46:23;18.00;63.70
37806;DHT22;25082;50.870;0.022;2024-01-30T03:48:49;18.10;63.70
37806;DHT22;25082;50.870;0.022;2024-01-30T03:51:15;18.10;63.70
37806;DHT22;25082;50.870;0.022;2024-01-30T03:53:44;18.00;63.70
37806;DHT22;25082;50.870;0.022;2024-01-30T03:56:12;18.10;63.70
37806;DHT22;25082;50.870;0.022;2024-01-30T03:58:39;18.00;63.70
37806;DHT22;25082;50.870;0.022;2024-01-30T04:01:05;18.00;63.70
37806;DHT22;25082;50.870;0.022;2024-01-30T04:03:30;18.00;63.70
37806;DHT22;25082;50.870;0.022;2024-01-30T04:05:56;18.00;63.70
37806;DHT22;25082;50.870;0.022;2024-01-30T04:08:22;18.00;63.70
37806;DHT22;25082;50.870;0.022;2024-01-30T04:10:48;18.00;63.70
37806;DHT22;25082;50.870;0.022;2024-01-30T04:13:13;18.00;63.70
37806;DHT22;25082;50.870;0.022;2024-01-30T04:15:39;18.00;63.70
37806;DHT22;25082;50.870;0.022;2024-01-30T04:18:05;17.90;63.60
37806;DHT22;25082;50.870;0.022;2024-01-30T04:20:31;18.00;63.70
37806;DHT22;25082;50.870;0.022;2024-01-30T04:22:57;17.90;63.60
37806;DHT22;25082;50.870;0.022;2024-01-30T04:25:23;18.00;63.70
37806;DHT22;25082;50.870;0.022;2024-01-30T04:27:48;18.00;63.70
37806;DHT22;25082;50.870;0.022;2024-01-30T04:30:14;17.90;63.60
37806;DHT22;25082;50.870;0.022;2024-01-30T04:32:40;17.90;63.60
37806;DHT22;25082;50.870;0.022;2024-01-30T04:35:06;17.90;63.60
37806;DHT22;25082;50.870;0.022;2024-01-30T04:37:32;17.90;63.60
37806;DHT22;25082;50.870;0.022;2024-01-30T04:39:58;17.90;63.60
37806;DHT22;25082;50.870;0.022;2024-01-30T04:42:23;17.90;63.60
37806;DHT22;25082;50.870;0.022;2024-01-30T04:44:50;17.90;63.60
37806;DHT22;25082;50.870;0.022;2024-01-30T04:47:16;17.90;63.60
37806;DHT22;25082;50.870;0.022;2024-01-30T04:49:42;17.90;63.60
37806;DHT22;25082;50.870;0.022;2024-01-30T04:52:09;17.90;63.60
37806;DHT22;25082;50.870;0.022;2024-01-30T04:54:35;17.90;63.60
37806;DHT22;25082;50.870;0.022;2024-01-30T04:57:02;17.90;63.60
37806;DHT22;25082;50.870;0.022;2024-01-30T04:59:28;17.80;63.50
37806;DHT22;25082;50.870;0.022;2024-01-30T05:01:54;17.80;63.50
37806;DHT22;25082;50.870;0.022;2024-01-30T05:04:20;17.90;63.60
37806;DHT22;25082;50.870;0.022;2024-01-30T05:06:46;17.90;63.60
37806;DHT22;25082;50.870;0.022;2024-01-30T05:09:12;17.80;63.50
37806;DHT22;25082;50.870;0.022;2024-01-30T05:11:41;17.80;63.50
37806;DHT22;25082;50.870;0.022;2024-01-30T05:14:07;17.80;63.50
37806;DHT22;25082;50.870;0.022;2024-01-30T05:16:34;17.80;63.50
37806;DHT22;25082;50.870;0.022;2024-01-30T05:19:00;17.80;63.50
37806;DHT22;25082;50.870;0.022;2024-01-30T05:21:26;17.80;63.50
37806;DHT22;25082;50.870;0.022;2024-01-30T05:23:52;17.80;63.40
37806;DHT22;25082;50.870;0.022;2024-01-30T05:26:17;17.80;63.50
37806;DHT22;25082;50.870;0.022;2024-01-30T05:28:43;17.80;63.40
37806;DHT22;25082;50.870;0.022;2024-01-30T05:31:12;17.80;63.50
37806;DHT22;25082;50.870;0.022;2024-01-30T05:33:38;17.70;63.40
37806;DHT22;25082;50.870;0.022;2024-01-30T05:36:04;17.80;63.40
37806;DHT22;25082;50.870;0.022;2024-01-30T05:38:29;17.80;63.40
37806;DHT22;25082;50.870;0.022;2024-01-30T05:40:56;17.70;63.30
37806;DHT22;25082;50.870;0.022;2024-01-30T05:43:23;17.70;63.90
37806;DHT22;25082;50.870;0.022;2024-01-30T05:45:49;17.70;63.30
37806;DHT22;25082;50.870;0.022;2024-01-30T05:48:15;17.70;63.40
37806;DHT22;25082;50.870;0.022;2024-01-30T05:50:41;17.70;63.40
37806;DHT22;25082;50.870;0.022;2024-01-30T05:53:07;17.70;63.30
37806;DHT22;25082;50.870;0.022;2024-01-30T05:55:33;17.70;63.30
37806;DHT22;25082;50.870;0.022;2024-01-30T05:57:59;17.70;63.30
37806;DHT22;25082;50.870;0.022;2024-01-30T06:00:24;17.70;63.30
37806;DHT22;25082;50.870;0.022;2024-01-30T06:02:50;17.70;63.30
37806;DHT22;25082;50.870;0.022;2024-01-30T06:05:16;17.70;63.30
37806;DHT22;25082;50.870;0.022;2024-01-30T06:07:42;17.60;63.30
37806;DHT22;25082;50.870;0.022;2024-01-30T06:10:08;17.60;63.20
37806;DHT22;25082;50.870;0.022;2024-01-30T06:12:34;17.70;63.30
37806;DHT22;25082;50.870;0.022;2024-01-30T06:15:01;17.60;63.30
37806;DHT22;25082;50.870;0.022;2024-01-30T06:17:27;17.60;63.20
37806;DHT22;25082;50.870;0.022;2024-01-30T06:19:52;17.60;63.20
37806;DHT22;25082;50.870;0.022;2024-01-30T06:22:18;17.60;63.20
37806;DHT22;25082;50.870;0.022;2024-01-30T06:24:44;17.60;63.20
37806;DHT22;25082;50.870;0.022;2024-01-30T06:27:15;17.60;63.20
37806;DHT22;25082;50.870;0.022;2024-01-30T06:29:43;17.60;63.20
37806;DHT22;25082;50.870;0.022;2024-01-30T06:32:09;17.60;63.20
37806;DHT22;25082;50.870;0.022;2024-01-30T06:34:35;17.60;63.20
37806;DHT22;25082;50.870;0.022;2024-01-30T06:37:00;17.60;63.20
37806;DHT22;25082;50.870;0.022;2024-01-30T06:39:27;17.60;63.20
37806;DHT22;25082;50.870;0.022;2024-01-30T06:41:52;17.60;63.20
37806;DHT22;25082;50.870;0.022;2024-01-30T06:44:18;17.60;63.20
37806;DHT22;25082;50.870;0.022;2024-01-30T06:46:44;17.50;63.20
37806;DHT22;25082;50.870;0.022;2024-01-30T06:49:10;17.50;63.10
37806;DHT22;25082;50.870;0.022;2024-01-30T06:51:36;17.50;63.20
37806;DHT22;25082;50.870;0.022;2024-01-30T06:54:01;17.50;63.20
37806;DHT22;25082;50.870;0.022;2024-01-30T06:56:28;17.50;63.20
37806;DHT22;25082;50.870;0.022;2024-01-30T06:58:53;17.50;63.20
37806;DHT22;25082;50.870;0.022;2024-01-30T07:01:19;17.50;63.20
37806;DHT22;25082;50.870;0.022;2024-01-30T07:03:45;17.50;63.10
37806;DHT22;25082;50.870;0.022;2024-01-30T07:06:11;17.50;63.20
37806;DHT22;25082;50.870;0.022;2024-01-30T07:08:37;17.50;63.20
37806;DHT22;25082;50.870;0.022;2024-01-30T07:11:05;17.50;63.10
37806;DHT22;25082;50.870;0.022;2024-01-30T07:13:32;17.50;63.20
37806;DHT22;25082;50.870;0.022;2024-01-30T07:15:57;17.50;63.20
37806;DHT22;25082;50.870;0.022;2024-01-30T07:18:23;17.50;63.10
37806;DHT22;25082;50.870;0.022;2024-01-30T07:20:49;17.50;63.10
37806;DHT22;25082;50.870;0.022;2024-01-30T07:23:16;17.50;63.20
37806;DHT22;25082;50.870;0.022;2024-01-30T07:25:46;17.50;63.10
37806;DHT22;25082;50.870;0.022;2024-01-30T07:28:15;17.50;62.90
37806;DHT22;25082;50.870;0.022;2024-01-30T07:30:44;17.50;62.80
37806;DHT22;25082;50.870;0.022;2024-01-30T07:33:10;17.50;62.80
37806;DHT22;25082;50.870;0.022;2024-01-30T07:35:36;17.60;62.80
37806;DHT22;25082;50.870;0.022;2024-01-30T07:38:02;17.60;62.70
37806;DHT22;25082;50.870;0.022;2024-01-30T07:40:28;17.60;62.70
37806;DHT22;25082;50.870;0.022;2024-01-30T07:42:54;17.60;62.60
37806;DHT22;25082;50.870;0.022;2024-01-30T07:45:20;17.60;62.60
37806;DHT22;25082;50.870;0.022;2024-01-30T07:47:49;17.70;62.60
37806;DHT22;25082;50.870;0.022;2024-01-30T07:50:15;17.70;62.60
37806;DHT22;25082;50.870;0.022;2024-01-30T07:52:41;17.70;62.60
37806;DHT22;25082;50.870;0.022;2024-01-30T07:55:07;17.70;62.50
37806;DHT22;25082;50.870;0.022;2024-01-30T07:57:34;17.80;62.60
37806;DHT22;25082;50.870;0.022;2024-01-30T08:00:02;17.80;62.60
37806;DHT22;25082;50.870;0.022;2024-01-30T08:02:28;17.80;62.60
37806;DHT22;25082;50.870;0.022;2024-01-30T08:04:54;17.80;62.60
37806;DHT22;25082;50.870;0.022;2024-01-30T08:07:20;17.80;62.50
37806;DHT22;25082;50.870;0.022;2024-01-30T08:09:47;17.90;62.60
37806;DHT22;25082;50.870;0.022;2024-01-30T08:12:13;17.90;62.60
37806;DHT22;25082;50.870;0.022;2024-01-30T08:14:39;17.90;62.60
37806;DHT22;25082;50.870;0.022;2024-01-30T08:17:06;17.90;62.60
37806;DHT22;25082;50.870;0.022;2024-01-30T08:19:33;17.90;62.50
37806;DHT22;25082;50.870;0.022;2024-01-30T08:21:59;18.00;62.60
37806;DHT22;25082;50.870;0.022;2024-01-30T08:24:24;18.00;63.10
37806;DHT22;25082;50.870;0.022;2024-01-30T08:26:50;18.00;62.60
37806;DHT22;25082;50.870;0.022;2024-01-30T08:29:16;18.00;62.60
37806;DHT22;25082;50.870;0.022;2024-01-30T08:31:42;18.00;62.50
37806;DHT22;25082;50.870;0.022;2024-01-30T08:34:08;18.00;62.50
37806;DHT22;25082;50.870;0.022;2024-01-30T08:36:33;18.00;62.50
37806;DHT22;25082;50.870;0.022;2024-01-30T08:38:59;18.00;62.50
37806;DHT22;25082;50.870;0.022;2024-01-30T08:41:25;18.00;62.60
37806;DHT22;25082;50.870;0.022;2024-01-30T08:43:52;18.10;62.70
37806;DHT22;25082;50.870;0.022;2024-01-30T08:46:18;18.10;63.10
37806;DHT22;25082;50.870;0.022;2024-01-30T08:48:44;18.00;63.20
37806;DHT22;25082;50.870;0.022;2024-01-30T08:51:10;18.10;63.50
37806;DHT22;25082;50.870;0.022;2024-01-30T08:53:36;18.10;63.70
37806;DHT22;25082;50.870;0.022;2024-01-30T08:56:03;18.10;63.80
37806;DHT22;25082;50.870;0.022;2024-01-30T08:58:29;18.10;63.90
37806;DHT22;25082;50.870;0.022;2024-01-30T09:00:56;18.10;63.90
37806;DHT22;25082;50.870;0.022;2024-01-30T09:03:21;18.10;64.10
37806;DHT22;25082;50.870;0.022;2024-01-30T09:05:47;18.10;64.30
37806;DHT22;25082;50.870;0.022;2024-01-30T09:08:13;18.10;64.20
37806;DHT22;25082;50.870;0.022;2024-01-30T09:10:39;18.10;64.20
37806;DHT22;25082;50.870;0.022;2024-01-30T09:13:04;18.10;64.20
37806;DHT22;25082;50.870;0.022;2024-01-30T09:15:30;18.10;64.30
37806;DHT22;25082;50.870;0.022;2024-01-30T09:17:56;18.20;64.30
37806;DHT22;25082;50.870;0.022;2024-01-30T09:20:22;18.20;64.40
37806;DHT22;25082;50.870;0.022;2024-01-30T09:22:48;18.20;64.40
37806;DHT22;25082;50.870;0.022;2024-01-30T09:25:15;18.20;64.40
37806;DHT22;25082;50.870;0.022;2024-01-30T09:27:40;18.20;64.30
37806;DHT22;25082;50.870;0.022;2024-01-30T09:30:07;18.20;64.30
37806;DHT22;25082;50.870;0.022;2024-01-30T09:32:33;18.20;64.30
37806;DHT22;25082;50.870;0.022;2024-01-30T09:34:58;18.20;64.90
37806;DHT22;25082;50.870;0.022;2024-01-30T09:37:24;18.20;64.30
37806;DHT22;25082;50.870;0.022;2024-01-30T09:39:50;18.20;64.40
37806;DHT22;25082;50.870;0.022;2024-01-30T09:42:34;18.30;64.50
37806;DHT22;25082;50.870;0.022;2024-01-30T09:45:04;18.30;64.40
37806;DHT22;25082;50.870;0.022;2024-01-30T09:47:51;18.30;64.40
37806;DHT22;25082;50.870;0.022;2024-01-30T09:50:17;18.30;64.40
37806;DHT22;25082;50.870;0.022;2024-01-30T09:52:47;18.40;64.70
37806;DHT22;25082;50.870;0.022;2024-01-30T09:55:13;18.40;64.80
37806;DHT22;25082;50.870;0.022;2024-01-30T09:57:41;18.30;64.90
37806;DHT22;25082;50.870;0.022;2024-01-30T10:00:07;18.40;65.20
37806;DHT22;25082;50.870;0.022;2024-01-30T10:02:35;18.40;65.10
37806;DHT22;25082;50.870;0.022;2024-01-30T10:05:01;18.40;65.10
37806;DHT22;25082;50.870;0.022;2024-01-30T10:07:27;18.40;65.00
37806;DHT22;25082;50.870;0.022;2024-01-30T10:09:53;18.30;58.00
37806;DHT22;25082;50.870;0.022;2024-01-30T10:12:22;18.30;61.80
37806;DHT22;25082;50.870;0.022;2024-01-30T10:14:48;18.20;63.20
37806;DHT22;25082;50.870;0.022;2024-01-30T10:17:13;18.20;63.30
37806;DHT22;25082;50.870;0.022;2024-01-30T10:19:40;18.30;63.50
37806;DHT22;25082;50.870;0.022;2024-01-30T10:22:07;18.30;63.50
37806;DHT22;25082;50.870;0.022;2024-01-30T10:24:34;18.40;63.60
37806;DHT22;25082;50.870;0.022;2024-01-30T10:27:00;18.40;63.60
37806;DHT22;25082;50.870;0.022;2024-01-30T10:29:27;18.40;61.80
37806;DHT22;25082;50.870;0.022;2024-01-30T10:32:03;18.40;63.10
37806;DHT22;25082;50.870;0.022;2024-01-30T10:34:30;18.40;63.20
37806;DHT22;25082;50.870;0.022;2024-01-30T10:37:06;18.40;63.30
37806;DHT22;25082;50.870;0.022;2024-01-30T10:39:37;18.40;63.40
37806;DHT22;25082;50.870;0.022;2024-01-30T10:42:04;18.40;63.40
37806;DHT22;25082;50.870;0.022;2024-01-30T10:44:37;18.40;63.30
37806;DHT22;25082;50.870;0.022;2024-01-30T10:47:11;18.40;63.30
37806;DHT22;25082;50.870;0.022;2024-01-30T10:49:40;18.50;63.40
37806;DHT22;25082;50.870;0.022;2024-01-30T10:52:08;18.50;63.30
37806;DHT22;25082;50.870;0.022;2024-01-30T10:54:35;18.50;63.40
37806;DHT22;25082;50.870;0.022;2024-01-30T10:57:03;18.50;63.40
37806;DHT22;25082;50.870;0.022;2024-01-30T10:59:30;18.50;63.50
37806;DHT22;25082;50.870;0.022;2024-01-30T11:01:57;18.50;63.50
37806;DHT22;25082;50.870;0.022;2024-01-30T11:04:24;18.50;63.40
37806;DHT22;25082;50.870;0.022;2024-01-30T11:06:51;18.50;63.40
37806;DHT22;25082;50.870;0.022;2024-01-30T11:09:17;18.60;63.50
37806;DHT22;25082;50.870;0.022;2024-01-30T11:11:51;18.60;63.50
37806;DHT22;25082;50.870;0.022;2024-01-30T11:14:22;18.60;63.50
37806;DHT22;25082;50.870;0.022;2024-01-30T11:16:49;18.60;63.50
37806;DHT22;25082;50.870;0.022;2024-01-30T11:19:14;18.60;63.40
37806;DHT22;25082;50.870;0.022;2024-01-30T11:21:43;18.60;63.40
37806;DHT22;25082;50.870;0.022;2024-01-30T11:24:09;18.60;63.40
37806;DHT22;25082;50.870;0.022;2024-01-30T11:26:35;18.70;63.50
37806;DHT22;25082;50.870;0.022;2024-01-30T11:29:07;18.70;63.50
37806;DHT22;25082;50.870;0.022;2024-01-30T11:31:33;18.70;63.50
37806;DHT22;25082;50.870;0.022;2024-01-30T11:33:59;18.70;63.50
37806;DHT22;25082;50.870;0.022;2024-01-30T11:36:26;18.70;63.50
37806;DHT22;25082;50.870;0.022;2024-01-30T11:38:53;18.70;63.50
37806;DHT22;25082;50.870;0.022;2024-01-30T11:41:19;18.70;63.60
37806;DHT22;25082;50.870;0.022;2024-01-30T11:43:54;18.70;63.50
37806;DHT22;25082;50.870;0.022;2024-01-30T11:46:20;18.70;63.40
37806;DHT22;25082;50.870;0.022;2024-01-30T11:48:46;18.70;63.30
37806;DHT22;25082;50.870;0.022;2024-01-30T11:51:13;18.70;63.30
37806;DHT22;25082;50.870;0.022;2024-01-30T11:53:39;18.70;63.30
37806;DHT22;25082;50.870;0.022;2024-01-30T11:56:08;18.70;63.30
37806;DHT22;25082;50.870;0.022;2024-01-30T11:58:34;18.70;63.30
37806;DHT22;25082;50.870;0.022;2024-01-30T12:01:00;18.80;63.40
37806;DHT22;25082;50.870;0.022;2024-01-30T12:03:26;18.80;63.40
37806;DHT22;25082;50.870;0.022;2024-01-30T12:05:58;18.80;63.40
37806;DHT22;25082;50.870;0.022;2024-01-30T12:08:24;18.80;63.40
37806;DHT22;25082;50.870;0.022;2024-01-30T12:10:57;18.80;63.40
37806;DHT22;25082;50.870;0.022;2024-01-30T12:13:24;18.80;63.40
37806;DHT22;25082;50.870;0.022;2024-01-30T12:15:50;18.80;63.30
37806;DHT22;25082;50.870;0.022;2024-01-30T12:18:18;18.80;63.00
37806;DHT22;25082;50.870;0.022;2024-01-30T12:20:44;18.80;63.60
37806;DHT22;25082;50.870;0.022;2024-01-30T12:23:12;18.80;63.00
37806;DHT22;25082;50.870;0.022;2024-01-30T12:25:38;18.70;63.00
37806;DHT22;25082;50.870;0.022;2024-01-30T12:28:04;18.80;63.00
37806;DHT22;25082;50.870;0.022;2024-01-30T12:30:30;18.80;63.00
37806;DHT22;25082;50.870;0.022;2024-01-30T12:32:55;18.80;63.00
37806;DHT22;25082;50.870;0.022;2024-01-30T12:35:21;18.80;63.00
37806;DHT22;25082;50.870;0.022;2024-01-30T12:37:49;18.80;63.00
37806;DHT22;25082;50.870;0.022;2024-01-30T12:40:16;18.80;61.60
37806;DHT22;25082;50.870;0.022;2024-01-30T12:42:43;18.80;62.60
37806;DHT22;25082;50.870;0.022;2024-01-30T12:45:11;18.80;63.00
37806;DHT22;25082;50.870;0.022;2024-01-30T12:47:37;18.80;62.50
37806;DHT22;25082;50.870;0.022;2024-01-30T12:50:03;18.80;62.50
37806;DHT22;25082;50.870;0.022;2024-01-30T12:52:29;18.80;62.60
37806;DHT22;25082;50.870;0.022;2024-01-30T12:54:55;18.80;62.60
37806;DHT22;25082;50.870;0.022;2024-01-30T12:57:21;18.80;62.60
37806;DHT22;25082;50.870;0.022;2024-01-30T12:59:48;18.80;62.90
37806;DHT22;25082;50.870;0.022;2024-01-30T13:02:15;18.90;64.80
37806;DHT22;25082;50.870;0.022;2024-01-30T13:04:42;18.90;66.30
37806;DHT22;25082;50.870;0.022;2024-01-30T13:07:08;18.90;66.70
37806;DHT22;25082;50.870;0.022;2024-01-30T13:09:33;19.00;66.40
37806;DHT22;25082;50.870;0.022;2024-01-30T13:12:00;19.00;65.30
37806;DHT22;25082;50.870;0.022;2024-01-30T13:14:26;19.00;64.80
37806;DHT22;25082;50.870;0.022;2024-01-30T13:16:52;19.00;65.90
37806;DHT22;25082;50.870;0.022;2024-01-30T13:19:18;19.00;67.50
37806;DHT22;25082;50.870;0.022;2024-01-30T13:21:44;19.00;66.10
37806;DHT22;25082;50.870;0.022;2024-01-30T13:24:10;19.00;65.60
37806;DHT22;25082;50.870;0.022;2024-01-30T13:26:36;19.10;65.50
37806;DHT22;25082;50.870;0.022;2024-01-30T13:29:02;19.10;65.40
37806;DHT22;25082;50.870;0.022;2024-01-30T13:31:29;19.10;65.40
37806;DHT22;25082;50.870;0.022;2024-01-30T13:33:54;19.10;65.30
37806;DHT22;25082;50.870;0.022;2024-01-30T13:36:21;19.10;65.30
37806;DHT22;25082;50.870;0.022;2024-01-30T13:38:47;19.10;65.40
37806;DHT22;25082;50.870;0.022;2024-01-30T13:41:12;19.10;65.30
37806;DHT22;25082;50.870;0.022;2024-01-30T13:43:38;19.10;65.30
37806;DHT22;25082;50.870;0.022;2024-01-30T13:46:04;19.20;65.30
37806;DHT22;25082;50.870;0.022;2024-01-30T13:48:31;19.20;65.20
37806;DHT22;25082;50.870;0.022;2024-01-30T13:50:57;19.20;64.90
37806;DHT22;25082;50.870;0.022;2024-01-30T13:53:22;19.20;64.90
37806;DHT22;25082;50.870;0.022;2024-01-30T13:55:48;19.10;64.70
37806;DHT22;25082;50.870;0.022;2024-01-30T13:58:14;19.20;64.60
37806;DHT22;25082;50.870;0.022;2024-01-30T14:00:40;19.20;64.60
37806;DHT22;25082;50.870;0.022;2024-01-30T14:03:06;19.20;64.40
37806;DHT22;25082;50.870;0.022;2024-01-30T14:05:32;19.20;64.40
37806;DHT22;25082;50.870;0.022;2024-01-30T14:07:58;19.10;64.10
37806;DHT22;25082;50.870;0.022;2024-01-30T14:10:25;19.10;63.90
37806;DHT22;25082;50.870;0.022;2024-01-30T14:12:51;19.10;63.90
37806;DHT22;25082;50.870;0.022;2024-01-30T14:15:17;19.10;63.80
37806;DHT22;25082;50.870;0.022;2024-01-30T14:17:46;19.10;63.80
37806;DHT22;25082;50.870;0.022;2024-01-30T14:20:14;19.10;63.80
37806;DHT22;25082;50.870;0.022;2024-01-30T14:22:42;19.10;63.70
37806;DHT22;25082;50.870;0.022;2024-01-30T14:25:08;19.10;63.70
37806;DHT22;25082;50.870;0.022;2024-01-30T14:27:35;19.20;63.70
37806;DHT22;25082;50.870;0.022;2024-01-30T14:30:01;19.10;63.60
37806;DHT22;25082;50.870;0.022;2024-01-30T14:32:28;19.10;63.60
37806;DHT22;25082;50.870;0.022;2024-01-30T14:34:54;19.10;63.50
37806;DHT22;25082;50.870;0.022;2024-01-30T14:37:21;19.10;63.50
37806;DHT22;25082;50.870;0.022;2024-01-30T14:39:47;19.10;63.40
37806;DHT22;25082;50.870;0.022;2024-01-30T14:42:14;19.10;63.40
37806;DHT22;25082;50.870;0.022;2024-01-30T14:44:40;19.10;63.30
37806;DHT22;25082;50.870;0.022;2024-01-30T14:47:06;19.10;63.30
37806;DHT22;25082;50.870;0.022;2024-01-30T14:49:32;19.10;63.30
37806;DHT22;25082;50.870;0.022;2024-01-30T14:51:58;19.20;63.30
37806;DHT22;25082;50.870;0.022;2024-01-30T14:54:29;19.10;63.30
37806;DHT22;25082;50.870;0.022;2024-01-30T14:56:55;19.20;63.30
37806;DHT22;25082;50.870;0.022;2024-01-30T14:59:21;19.10;63.20
37806;DHT22;25082;50.870;0.022;2024-01-30T15:01:47;19.20;63.20
37806;DHT22;25082;50.870;0.022;2024-01-30T15:04:13;19.20;63.20
37806;DHT22;25082;50.870;0.022;2024-01-30T15:06:40;19.20;63.20
37806;DHT22;25082;50.870;0.022;2024-01-30T15:09:11;19.20;63.10
37806;DHT22;25082;50.870;0.022;2024-01-30T15:11:44;19.10;63.10
37806;DHT22;25082;50.870;0.022;2024-01-30T15:14:10;19.20;63.10
37806;DHT22;25082;50.870;0.022;2024-01-30T15:16:35;19.20;63.10
37806;DHT22;25082;50.870;0.022;2024-01-30T15:19:02;19.20;63.00
37806;DHT22;25082;50.870;0.022;2024-01-30T15:21:28;19.20;63.00
37806;DHT22;25082;50.870;0.022;2024-01-30T15:23:54;19.20;63.00
37806;DHT22;25082;50.870;0.022;2024-01-30T15:26:20;19.20;63.00